Time;durP1;ratioP1;P1;durP2;ratioP2;P2;SDS_P1;SDS_P2;PMS_P1;PMS_P2;Temp;Humidity;BMP_temperature;BMP_pressure;BME280_temperature;BME280_humidity;BME280_pressure;Samples;Min_cycle;Max_cycle;Signal;HPM_P1;HPM_P2
2022/04/17 08:26:20;;;;;;;;;;;;;;;8.60;60.63;97321.22;4278366;27;10327;-70
2022/04/17 08:28:22;;;;;;;;;;;;;;;8.61;60.87;97317.63;4263147;27;5730;-70
2022/04/17 08:30:26;;;;;;;;;;;;;;;8.73;60.74;97322.38;4262381;27;5819;-70
2022/04/17 08:32:27;;;;;;;;;;;;;;;8.72;59.96;97319.88;4263007;27;5730;-71
2022/04/17 08:34:29;;;;;;;;;;;;;;;8.80;60.35;97319.06;4248848;27;5744;-70
2022/04/17 08:36:30;;;;;;;;;;;;;;;9.00;59.09;97317.69;4260201;27;5735;-70
2022/04/17 08:38:33;;;;;;;;;;;;;;;9.02;58.79;97318.31;4262312;27;5754;-70
2022/04/17 08:40:38;;;;;;;;;;;;;;;9.17;58.55;97319.25;4262621;27;5715;-70
2022/04/17 08:42:40;;;;;;;;;;;;;;;9.23;57.74;97318.56;4262369;27;5746;-70
2022/04/17 08:44:42;;;;;;;;;;;;;;;9.23;57.70;97313.28;4261961;27;5732;-70
2022/04/17 08:46:44;;;;;;;;;;;;;;;9.27;58.08;97311.13;4261954;27;5726;-71
2022/04/17 08:48:49;;;;;;;;;;;;;;;9.21;58.48;97315.28;4261839;27;5710;-70
2022/04/17 08:50:52;;;;;;;;;;;;;;;9.23;58.21;97318.56;4273558;27;5810;-71
2022/04/17 08:52:55;;;;;;;;;;;;;;;9.21;58.36;97312.66;4262513;27;6160;-71
2022/04/17 08:54:59;;;;;;;;;;;;;;;9.22;58.34;97305.56;4262803;27;5726;-71
2022/04/17 08:57:03;;;;;;;;;;;;;;;9.27;57.39;97304.03;4260533;27;5692;-72
2022/04/17 08:59:05;;;;;;;;;;;;;;;9.17;56.95;97306.06;4259157;27;5734;-71
2022/04/17 09:01:11;;;;;;;;;;;;;;;9.20;56.91;97300.44;4262204;27;5746;-70
2022/04/17 09:03:13;;;;;;;;;;;;;;;9.28;57.48;97305.66;4257797;27;5730;-69
2022/04/17 09:05:20;;;;;;;;;;;;;;;9.40;58.06;97302.66;4256316;27;5742;-70
2022/04/17 09:07:21;;;;;;;;;;;;;;;9.45;58.12;97305.59;4245276;27;5783;-71
2022/04/17 09:09:23;;;;;;;;;;;;;;;9.46;58.56;97301.97;4245175;27;5736;-71
2022/04/17 09:11:26;;;;;;;;;;;;;;;9.34;58.08;97305.00;4252924;27;5737;-68
2022/04/17 09:13:34;;;;;;;;;;;;;;;9.44;57.94;97311.88;4267235;27;5863;-66
2022/04/17 09:15:37;;;;;;;;;;;;;;;9.52;58.27;97311.84;4259521;27;5781;-66
2022/04/17 09:17:38;;;;;;;;;;;;;;;9.41;58.72;97310.41;4261400;27;5738;-66
2022/04/17 09:19:40;;;;;;;;;;;;;;;9.56;58.74;97302.56;4262034;27;5664;-65
2022/04/17 09:21:42;;;;;;;;;;;;;;;9.50;58.43;97305.91;4258675;27;5848;-65
2022/04/17 09:23:44;;;;;;;;;;;;;;;9.37;58.76;97309.09;4255084;27;5766;-65
2022/04/17 09:25:47;;;;;;;;;;;;;;;9.37;58.87;97310.91;4249969;27;5744;-65
2022/04/17 09:28:06;;;;;;;;;;;;;;;9.37;59.54;97308.28;4241990;27;5738;-62
2022/04/17 09:30:34;;;;;;;;;;;;;;;9.54;59.43;97308.03;4245105;27;6422;-64
2022/04/17 09:32:36;;;;;;;;;;;;;;;9.58;58.26;97306.69;4232907;28;6877;-65
2022/04/17 09:34:49;;;;;;;;;;;;;;;9.76;58.73;97306.41;4254357;27;5701;-65
2022/04/17 09:37:00;;;;;;;;;;;;;;;9.78;58.27;97301.78;4267636;27;5701;-65
2022/04/17 09:39:15;;;;;;;;;;;;;;;9.85;58.67;97299.22;4246125;27;6475;-65
2022/04/17 09:41:19;;;;;;;;;;;;;;;10.01;58.48;97300.94;4231490;28;5880;-65
2022/04/17 09:43:20;;;;;;;;;;;;;;;9.86;56.50;97298.25;4233249;27;5732;-64
2022/04/17 09:45:22;;;;;;;;;;;;;;;9.83;56.97;97303.88;4232389;27;5809;-63
2022/04/17 09:47:28;;;;;;;;;;;;;;;9.84;57.25;97295.78;4232922;28;5797;-64
2022/04/17 09:50:00;;;;;;;;;;;;;;;9.90;56.40;97300.38;4233139;27;5869;-64
2022/04/17 09:52:07;;;;;;;;;;;;;;;9.93;56.17;97294.72;4233077;28;5724;-65
2022/04/17 09:54:08;;;;;;;;;;;;;;;10.06;57.20;97290.66;4231674;28;5779;-64
2022/04/17 09:56:11;;;;;;;;;;;;;;;10.01;58.21;97285.91;4233189;28;5768;-65
2022/04/17 09:58:13;;;;;;;;;;;;;;;10.17;58.48;97284.94;4232994;28;5759;-65
2022/04/17 10:00:18;;;;;;;;;;;;;;;10.18;58.43;97276.03;4232822;28;5764;-65
2022/04/17 10:02:20;;;;;;;;;;;;;;;9.99;58.00;97276.53;4232739;28;5744;-65
2022/04/17 10:04:24;;;;;;;;;;;;;;;10.06;57.22;97266.88;4232684;27;5751;-64
2022/04/17 10:06:27;;;;;;;;;;;;;;;10.18;57.12;97268.91;4232705;27;5744;-64
2022/04/17 10:08:31;;;;;;;;;;;;;;;10.25;57.19;97269.06;4240912;27;5200;-64
2022/04/17 10:10:33;;;;;;;;;;;;;;;10.40;57.00;97266.44;4231244;28;5738;-64
2022/04/17 10:12:35;;;;;;;;;;;;;;;10.46;56.81;97263.09;4249843;27;5747;-64
2022/04/17 10:14:37;;;;;;;;;;;;;;;10.40;57.79;97266.44;4249623;27;5707;-64
2022/04/17 10:16:43;;;;;;;;;;;;;;;10.50;57.48;97265.19;4249415;27;5726;-64
2022/04/17 10:18:45;;;;;;;;;;;;;;;10.57;57.87;97260.00;4249688;27;5726;-63
2022/04/17 10:20:50;;;;;;;;;;;;;;;10.61;58.78;97255.97;4246516;27;5775;-64
2022/04/17 10:22:57;;;;;;;;;;;;;;;10.56;58.07;97257.53;4249533;27;5733;-63
2022/04/17 10:25:02;;;;;;;;;;;;;;;10.60;57.75;97253.53;4249192;27;5715;-65
2022/04/17 10:27:07;;;;;;;;;;;;;;;10.67;58.61;97254.44;4248495;27;5836;-64
2022/04/17 10:29:15;;;;;;;;;;;;;;;10.74;57.98;97247.41;4248286;27;5639;-64
2022/04/17 10:31:21;;;;;;;;;;;;;;;10.79;58.95;97245.88;4249133;27;5762;-64
2022/04/17 10:33:42;;;;;;;;;;;;;;;10.79;57.13;97250.34;4249318;27;5765;-64
2022/04/17 10:35:52;;;;;;;;;;;;;;;10.76;57.27;97253.34;4247714;27;5862;-64
2022/04/17 10:38:00;;;;;;;;;;;;;;;10.71;56.85;97248.59;4246771;27;5707;-64
2022/04/17 10:40:02;;;;;;;;;;;;;;;10.68;56.29;97245.50;4249612;27;5702;-65
2022/04/17 10:42:08;;;;;;;;;;;;;;;10.70;55.35;97232.91;4249449;27;5797;-64
2022/04/17 10:44:11;;;;;;;;;;;;;;;10.63;54.87;97245.22;4251276;27;5750;-65
2022/04/17 10:46:16;;;;;;;;;;;;;;;10.66;55.55;97237.75;4248948;27;5742;-64
2022/04/17 10:48:27;;;;;;;;;;;;;;;10.63;56.85;97234.63;4249345;27;5738;-64
2022/04/17 10:50:30;;;;;;;;;;;;;;;10.76;55.22;97230.38;4249230;27;5730;-64
2022/04/17 10:52:33;;;;;;;;;;;;;;;10.79;55.81;97231.81;4249070;27;5714;-64
2022/04/17 10:54:49;;;;;;;;;;;;;;;10.80;56.26;97222.88;4247690;27;5692;-64
2022/04/17 10:56:54;;;;;;;;;;;;;;;10.83;55.62;97222.50;4243001;27;5970;-65
2022/04/17 10:58:57;;;;;;;;;;;;;;;10.90;55.02;97212.84;4236136;27;5729;-62
2022/04/17 11:00:59;;;;;;;;;;;;;;;10.87;55.11;97217.66;4243439;27;5743;-65
2022/04/17 11:03:09;;;;;;;;;;;;;;;10.72;55.79;97213.22;4242626;27;5804;-66
2022/04/17 11:05:11;;;;;;;;;;;;;;;10.82;55.63;97206.81;4245352;27;5694;-62
2022/04/17 11:07:13;;;;;;;;;;;;;;;10.87;56.03;97201.78;4263297;27;6394;-64
2022/04/17 11:09:20;;;;;;;;;;;;;;;11.03;54.89;97197.13;4247065;27;5711;-65
2022/04/17 11:11:22;;;;;;;;;;;;;;;11.14;55.24;97195.81;4237948;27;5774;-65
2022/04/17 11:13:27;;;;;;;;;;;;;;;11.17;55.15;97195.44;4248226;27;5786;-67
2022/04/17 11:15:29;;;;;;;;;;;;;;;11.25;54.83;97187.41;4242836;27;5671;-65
2022/04/17 11:17:33;;;;;;;;;;;;;;;11.21;54.61;97182.66;4247687;27;5730;-67
2022/04/17 11:19:37;;;;;;;;;;;;;;;11.30;55.11;97176.22;4245444;27;5772;-63
2022/04/17 11:21:45;;;;;;;;;;;;;;;11.50;53.36;97173.78;4250318;27;5730;-67
2022/04/17 11:23:49;;;;;;;;;;;;;;;11.59;53.36;97170.00;4247974;27;5726;-64
2022/04/17 11:25:53;;;;;;;;;;;;;;;11.62;52.68;97165.13;4246468;27;5715;-66
2022/04/17 11:27:57;;;;;;;;;;;;;;;11.58;52.01;97163.06;4241994;27;5744;-66
2022/04/17 11:30:19;;;;;;;;;;;;;;;11.70;53.01;97161.53;4248436;27;5803;-69
2022/04/17 11:32:21;;;;;;;;;;;;;;;11.72;53.04;97156.88;4242922;27;5752;-68
2022/04/17 11:34:22;;;;;;;;;;;;;;;11.80;54.36;97151.47;4231324;27;5776;-68
2022/04/17 11:36:24;;;;;;;;;;;;;;;11.83;55.80;97156.38;4246836;27;5746;-64
2022/04/17 11:38:26;;;;;;;;;;;;;;;11.79;56.79;97151.66;4246028;27;5731;-64
2022/04/17 11:40:31;;;;;;;;;;;;;;;11.90;56.62;97148.50;4258502;27;5741;-66
2022/04/17 11:42:46;;;;;;;;;;;;;;;11.72;56.69;97154.22;4231272;28;5779;-65
2022/04/17 11:44:49;;;;;;;;;;;;;;;11.72;55.54;97153.41;4237938;27;5770;-65
2022/04/17 11:46:51;;;;;;;;;;;;;;;11.78;56.25;97136.72;4249837;27;5719;-66
2022/04/17 11:48:56;;;;;;;;;;;;;;;11.95;57.31;97148.72;4251360;27;5822;-65
2022/04/17 11:50:58;;;;;;;;;;;;;;;11.92;56.18;97149.13;4245040;27;5720;-64
2022/04/17 11:53:02;;;;;;;;;;;;;;;11.81;54.66;97134.56;4246440;27;5703;-65
2022/04/17 11:55:05;;;;;;;;;;;;;;;11.88;55.39;97132.78;4249407;27;5711;-64
2022/04/17 11:57:08;;;;;;;;;;;;;;;11.99;54.38;97134.06;4251095;27;5657;-64
2022/04/17 11:59:09;;;;;;;;;;;;;;;11.91;53.97;97123.66;4250884;27;5612;-64
2022/04/17 12:01:22;;;;;;;;;;;;;;;11.82;54.44;97122.16;4250192;27;5636;-63
2022/04/17 12:03:44;;;;;;;;;;;;;;;11.88;53.67;97126.66;4250702;27;5839;-64
2022/04/17 12:05:45;;;;;;;;;;;;;;;11.97;53.16;97120.19;4250521;27;5826;-64
2022/04/17 12:08:01;;;;;;;;;;;;;;;12.10;52.86;97122.94;4249067;27;5618;-64
2022/04/17 12:10:11;;;;;;;;;;;;;;;12.03;51.68;97108.03;4234026;28;5734;-64
2022/04/17 12:12:18;;;;;;;;;;;;;;;12.12;52.36;97112.16;4245712;27;5630;-64
2022/04/17 12:14:29;;;;;;;;;;;;;;;12.09;51.12;97105.41;4250746;27;5738;-64
2022/04/17 12:16:31;;;;;;;;;;;;;;;12.19;51.88;97107.69;4250604;27;5631;-64
2022/04/17 12:18:33;;;;;;;;;;;;;;;12.30;52.97;97112.44;4250682;27;5995;-64
2022/04/17 12:20:35;;;;;;;;;;;;;;;12.39;51.96;97118.41;4250751;27;5711;-65
2022/04/17 12:22:37;;;;;;;;;;;;;;;12.33;52.18;97105.94;4250795;27;5639;-65
2022/04/17 12:24:43;;;;;;;;;;;;;;;12.27;52.30;97093.47;4250278;27;6637;-65
2022/04/17 12:26:46;;;;;;;;;;;;;;;12.11;53.26;97095.41;4250979;27;5631;-65
2022/04/17 12:28:50;;;;;;;;;;;;;;;12.39;53.37;97086.59;4250537;27;5823;-65
2022/04/17 12:30:52;;;;;;;;;;;;;;;12.55;52.52;97091.56;4249161;27;5784;-65
2022/04/17 12:33:00;;;;;;;;;;;;;;;12.66;52.35;97082.22;4250381;27;5694;-66
2022/04/17 12:35:03;;;;;;;;;;;;;;;12.70;51.99;97075.50;4261322;27;6377;-65
2022/04/17 12:37:28;;;;;;;;;;;;;;;12.80;51.33;97073.31;4267824;27;5610;-65
2022/04/17 12:39:32;;;;;;;;;;;;;;;13.02;51.00;97076.59;4268024;27;5622;-63
2022/04/17 12:41:57;;;;;;;;;;;;;;;13.12;50.12;97067.22;4267896;27;5694;-63
2022/04/17 12:43:58;;;;;;;;;;;;;;;13.22;49.17;97066.84;4267870;27;5706;-64
2022/04/17 12:46:04;;;;;;;;;;;;;;;13.48;48.54;97074.03;4267257;27;5614;-63
2022/04/17 12:48:07;;;;;;;;;;;;;;;13.67;42.25;97067.06;4267777;27;5716;-64
2022/04/17 12:50:11;;;;;;;;;;;;;;;13.93;42.73;97064.38;4267820;27;5697;-63
2022/04/17 12:52:21;;;;;;;;;;;;;;;14.32;36.73;97057.31;4260647;27;7508;-64
2022/04/17 12:54:28;;;;;;;;;;;;;;;14.44;37.44;97060.97;4247979;27;5627;-64
2022/04/17 12:56:30;;;;;;;;;;;;;;;14.30;42.13;97055.91;4249278;27;5071;-65
2022/04/17 12:58:54;;;;;;;;;;;;;;;14.34;38.69;97049.94;4250140;27;5620;-64
2022/04/17 13:00:57;;;;;;;;;;;;;;;14.46;38.52;97044.81;4248741;27;5875;-63
2022/04/17 13:03:11;;;;;;;;;;;;;;;14.55;38.22;97040.88;4253872;27;5683;-64
2022/04/17 13:05:23;;;;;;;;;;;;;;;14.76;37.80;97037.09;4236321;28;5669;-64
2022/04/17 13:07:37;;;;;;;;;;;;;;;14.79;36.98;97024.16;4240628;27;5875;-64
2022/04/17 13:09:57;;;;;;;;;;;;;;;15.10;34.17;97036.66;4236513;27;6426;-64
2022/04/17 13:11:59;;;;;;;;;;;;;;;15.00;35.49;97019.53;4235458;28;5676;-64
2022/04/17 13:14:04;;;;;;;;;;;;;;;15.07;34.67;97022.97;4236530;28;5669;-64
2022/04/17 13:16:09;;;;;;;;;;;;;;;15.15;34.44;97018.19;4236269;28;5665;-64
2022/04/17 13:18:11;;;;;;;;;;;;;;;15.28;35.29;97013.78;4236497;28;5660;-64
2022/04/17 13:20:13;;;;;;;;;;;;;;;15.24;35.86;97012.59;4236540;28;5676;-64
2022/04/17 13:22:15;;;;;;;;;;;;;;;15.39;34.07;97011.22;4236446;28;5728;-64
2022/04/17 13:24:19;;;;;;;;;;;;;;;15.36;33.25;97006.34;4218072;28;5667;-64
2022/04/17 13:26:21;;;;;;;;;;;;;;;15.44;33.55;97006.09;4202569;28;5701;-65
2022/04/17 13:28:23;;;;;;;;;;;;;;;15.48;32.03;96998.47;4202414;28;5689;-64
2022/04/17 13:30:25;;;;;;;;;;;;;;;15.53;33.61;97001.28;4202598;28;5793;-64
2022/04/17 13:32:27;;;;;;;;;;;;;;;15.42;31.81;97002.00;4202161;28;5708;-66
2022/04/17 13:34:33;;;;;;;;;;;;;;;15.43;32.22;96995.66;4214216;28;5838;-65
2022/04/17 13:36:34;;;;;;;;;;;;;;;15.43;32.35;96995.66;4236277;28;5738;-67
2022/04/17 13:38:37;;;;;;;;;;;;;;;15.46;32.42;96989.06;4234797;28;5750;-65
2022/04/17 13:40:39;;;;;;;;;;;;;;;15.55;32.66;96993.06;4235830;28;5782;-64
2022/04/17 13:42:40;;;;;;;;;;;;;;;15.50;33.01;96979.59;4235892;28;5641;-64
2022/04/17 13:44:42;;;;;;;;;;;;;;;15.53;32.32;96974.66;4234546;28;5660;-64
2022/04/17 13:46:44;;;;;;;;;;;;;;;15.61;31.99;96977.03;4235546;28;5724;-63
2022/04/17 13:48:46;;;;;;;;;;;;;;;15.69;32.36;96974.09;4235933;28;5645;-65
2022/04/17 13:50:47;;;;;;;;;;;;;;;15.72;32.63;96957.66;4236001;28;5730;-65
2022/04/17 13:52:49;;;;;;;;;;;;;;;15.73;32.49;96958.47;4235958;28;7194;-65
2022/04/17 13:54:51;;;;;;;;;;;;;;;15.78;33.15;96963.16;4204889;28;5716;-65
2022/04/17 13:56:53;;;;;;;;;;;;;;;15.92;32.89;96956.63;4217708;28;5069;-66
2022/04/17 13:58:54;;;;;;;;;;;;;;;16.05;32.24;96953.00;4217540;28;5769;-67
2022/04/17 14:00:57;;;;;;;;;;;;;;;15.97;31.70;96956.78;4218795;28;5757;-65
2022/04/17 14:02:58;;;;;;;;;;;;;;;15.91;32.29;96941.66;4218777;28;6378;-65
2022/04/17 14:05:01;;;;;;;;;;;;;;;16.06;31.68;96942.09;4219008;28;5659;-65
2022/04/17 14:07:07;;;;;;;;;;;;;;;16.10;31.25;96940.63;4218794;28;5675;-65
2022/04/17 14:09:09;;;;;;;;;;;;;;;16.10;30.73;96943.28;4218785;28;5753;-65
2022/04/17 14:11:11;;;;;;;;;;;;;;;16.04;31.34;96933.50;4219118;28;5667;-65
2022/04/17 14:13:13;;;;;;;;;;;;;;;16.03;32.02;96929.22;4218961;28;5668;-67
2022/04/17 14:15:15;;;;;;;;;;;;;;;16.15;31.32;96935.41;4218728;28;5761;-65
2022/04/17 14:17:16;;;;;;;;;;;;;;;16.05;31.28;96924.47;4217261;28;5663;-65
2022/04/17 14:19:18;;;;;;;;;;;;;;;16.02;30.77;96915.06;4218936;28;5663;-65
2022/04/17 14:21:19;;;;;;;;;;;;;;;16.05;33.20;96927.13;4217402;28;5694;-66
2022/04/17 14:23:21;;;;;;;;;;;;;;;16.19;33.97;96917.09;4217148;28;5690;-65
2022/04/17 14:25:23;;;;;;;;;;;;;;;16.15;34.72;96919.41;4225704;28;6330;-66
2022/04/17 14:27:25;;;;;;;;;;;;;;;16.24;33.42;96911.94;4234045;28;5673;-68
2022/04/17 14:29:27;;;;;;;;;;;;;;;16.20;33.07;96911.56;4235536;28;5645;-67
2022/04/17 14:31:29;;;;;;;;;;;;;;;16.09;32.22;96909.66;4234154;28;5776;-64
2022/04/17 14:33:31;;;;;;;;;;;;;;;16.09;32.47;96904.34;4235044;28;5677;-65
2022/04/17 14:35:33;;;;;;;;;;;;;;;16.24;32.79;96910.06;4248928;27;5827;-65
2022/04/17 14:37:35;;;;;;;;;;;;;;;16.24;31.80;96893.25;4251032;27;5710;-66
2022/04/17 14:39:37;;;;;;;;;;;;;;;16.34;32.48;96895.38;4252328;27;5651;-66
2022/04/17 14:41:39;;;;;;;;;;;;;;;16.40;32.60;96897.94;4251305;27;5812;-67
2022/04/17 14:43:41;;;;;;;;;;;;;;;16.32;29.19;96897.47;4252189;27;5635;-65
2022/04/17 14:45:47;;;;;;;;;;;;;;;16.40;30.44;96889.94;4251909;27;5628;-64
2022/04/17 14:47:49;;;;;;;;;;;;;;;16.53;29.02;96884.41;4252374;27;5079;-65
2022/04/17 14:49:51;;;;;;;;;;;;;;;16.52;29.13;96881.97;4251734;27;5605;-64
2022/04/17 14:51:53;;;;;;;;;;;;;;;16.51;28.97;96886.47;4251972;27;5635;-66
2022/04/17 14:53:55;;;;;;;;;;;;;;;16.44;29.00;96874.31;4245584;27;5768;-65
2022/04/17 14:55:58;;;;;;;;;;;;;;;16.45;29.93;96881.25;4233556;28;5747;-65
2022/04/17 14:58:00;;;;;;;;;;;;;;;16.35;28.72;96881.00;4235064;27;5737;-65
2022/04/17 15:00:03;;;;;;;;;;;;;;;16.35;29.16;96881.00;4234739;27;5654;-65
2022/04/17 15:02:06;;;;;;;;;;;;;;;16.37;28.85;96878.91;4233289;28;5861;-65
2022/04/17 15:04:14;;;;;;;;;;;;;;;16.34;29.13;96864.19;4234626;28;5657;-66
2022/04/17 15:06:16;;;;;;;;;;;;;;;16.41;29.68;96864.06;4234731;28;5657;-66
2022/04/17 15:08:18;;;;;;;;;;;;;;;16.41;28.77;96856.88;4247936;27;5689;-66
2022/04/17 15:10:19;;;;;;;;;;;;;;;16.40;29.53;96870.44;4251843;27;5683;-65
2022/04/17 15:12:21;;;;;;;;;;;;;;;16.44;29.05;96874.31;4251801;27;5628;-65
2022/04/17 15:14:23;;;;;;;;;;;;;;;16.41;28.80;96864.06;4251288;27;5653;-65
2022/04/17 15:16:24;;;;;;;;;;;;;;;16.33;28.96;96864.41;4250115;27;5719;-64
2022/04/17 15:18:26;;;;;;;;;;;;;;;16.32;29.12;96852.94;4250364;27;5612;-64
2022/04/17 15:20:28;;;;;;;;;;;;;;;16.33;29.59;96851.88;4251578;27;5616;-64
2022/04/17 15:22:30;;;;;;;;;;;;;;;16.28;29.69;96859.75;4251401;27;6289;-64
2022/04/17 15:24:32;;;;;;;;;;;;;;;16.21;28.69;96854.53;4252242;27;5659;-64
2022/04/17 15:26:34;;;;;;;;;;;;;;;16.24;29.72;96847.91;4267539;27;5834;-64
2022/04/17 15:28:35;;;;;;;;;;;;;;;16.28;29.11;96849.06;4268783;27;5595;-64
2022/04/17 15:30:37;;;;;;;;;;;;;;;16.27;29.87;96837.59;4268658;27;5611;-64
2022/04/17 15:32:39;;;;;;;;;;;;;;;16.31;30.37;96835.31;4268436;27;5678;-65
2022/04/17 15:34:41;;;;;;;;;;;;;;;16.36;30.07;96834.59;4260521;27;5660;-65
2022/04/17 15:36:42;;;;;;;;;;;;;;;16.37;29.48;96836.22;4251507;27;5644;-64
2022/04/17 15:38:45;;;;;;;;;;;;;;;16.28;28.78;96839.22;4251438;27;5851;-64
2022/04/17 15:40:47;;;;;;;;;;;;;;;16.26;29.58;96833.28;4251125;27;7148;-64
2022/04/17 15:42:49;;;;;;;;;;;;;;;16.30;29.02;96831.78;4251147;27;6336;-64
2022/04/17 15:49:40;;;;;;;;;;;;;;;16.30;28.64;96837.13;4251002;27;5844;-64
2022/04/17 15:51:42;;;;;;;;;;;;;;;16.22;28.50;96834.81;4251142;27;5793;-64
2022/04/17 15:53:44;;;;;;;;;;;;;;;16.22;28.80;96826.81;4247929;27;6064;-64
2022/04/17 15:55:45;;;;;;;;;;;;;;;16.22;28.50;96832.13;4234094;28;5661;-64
2022/04/17 15:57:47;;;;;;;;;;;;;;;16.11;28.45;96811.56;4234000;28;5654;-65
2022/04/17 15:59:50;;;;;;;;;;;;;;;16.18;28.68;96817.59;4234018;28;5653;-65
2022/04/17 16:01:51;;;;;;;;;;;;;;;16.21;29.15;96825.19;4232577;28;6278;-65
2022/04/17 16:03:53;;;;;;;;;;;;;;;16.36;28.82;96814.06;4243049;27;5632;-65
2022/04/17 16:05:55;;;;;;;;;;;;;;;16.38;29.22;96824.50;4251018;27;5711;-64
2022/04/17 16:07:56;;;;;;;;;;;;;;;16.32;28.69;96820.91;4256594;27;6263;-65
2022/04/17 16:09:58;;;;;;;;;;;;;;;16.26;28.74;96824.47;4241367;27;5667;-67
2022/04/17 16:12:00;;;;;;;;;;;;;;;16.25;28.97;96820.19;4237011;27;5722;-67
2022/04/17 16:14:01;;;;;;;;;;;;;;;16.26;28.92;96825.28;4250122;27;6398;-66
2022/04/17 16:16:03;;;;;;;;;;;;;;;16.24;28.68;96821.22;4247216;27;5871;-67
2022/04/17 16:18:05;;;;;;;;;;;;;;;16.24;28.90;96822.03;4237005;27;5752;-67
2022/04/17 16:20:07;;;;;;;;;;;;;;;16.19;28.84;96824.56;4239737;27;5839;-67
2022/04/17 16:22:09;;;;;;;;;;;;;;;16.15;28.87;96827.94;4242804;27;5854;-67
2022/04/17 16:24:11;;;;;;;;;;;;;;;16.16;29.74;96826.88;4244617;27;5879;-67
2022/04/17 16:26:13;;;;;;;;;;;;;;;16.16;29.51;96824.22;4237560;27;5748;-68
2022/04/17 16:28:15;;;;;;;;;;;;;;;16.17;29.38;96832.00;4244889;27;5835;-68
2022/04/17 16:30:17;;;;;;;;;;;;;;;16.16;30.29;96830.38;4248335;27;5829;-67
2022/04/17 16:32:21;;;;;;;;;;;;;;;16.21;29.40;96833.19;4250157;27;5709;-67
2022/04/17 16:34:23;;;;;;;;;;;;;;;16.16;29.44;96826.88;4247012;27;5688;-69
2022/04/17 16:36:24;;;;;;;;;;;;;;;16.11;29.61;96832.09;4256347;27;5791;-66
2022/04/17 16:38:26;;;;;;;;;;;;;;;16.09;29.68;96836.84;4243341;27;5748;-66
2022/04/17 16:40:28;;;;;;;;;;;;;;;16.09;29.25;96831.53;4237284;27;5752;-65
2022/04/17 16:42:30;;;;;;;;;;;;;;;16.00;28.93;96831.81;4249514;27;5903;-66
2022/04/17 16:44:32;;;;;;;;;;;;;;;15.98;29.40;96823.25;4246784;27;6528;-66
2022/04/17 16:46:33;;;;;;;;;;;;;;;15.98;29.30;96833.09;4248926;27;5865;-66
2022/04/17 16:48:35;;;;;;;;;;;;;;;15.95;29.28;96825.53;4250931;27;5816;-66
2022/04/17 16:50:37;;;;;;;;;;;;;;;15.91;29.52;96822.50;4248980;27;5697;-65
2022/04/17 16:52:39;;;;;;;;;;;;;;;15.81;29.61;96821.44;4243871;27;5775;-66
2022/04/17 16:54:41;;;;;;;;;;;;;;;15.76;29.70;96818.63;4243396;27;5744;-66
2022/04/17 16:56:43;;;;;;;;;;;;;;;15.66;29.90;96832.50;4241057;27;5715;-66
2022/04/17 17:01:12;;;;;;;;;;;;;;;15.65;29.28;96826.34;4244486;27;5714;-64
2022/04/17 17:03:16;;;;;;;;;;;;;;;15.64;30.26;96827.38;4250600;27;5842;-65
2022/04/17 17:05:19;;;;;;;;;;;;;;;15.69;30.20;96826.69;4248409;27;5656;-68
2022/04/17 17:07:20;;;;;;;;;;;;;;;15.64;29.75;96831.91;4244632;27;5758;-64
2022/04/17 17:09:23;;;;;;;;;;;;;;;15.63;29.57;96836.41;4268471;27;5709;-67
2022/04/17 17:11:25;;;;;;;;;;;;;;;15.56;29.33;96830.31;4234045;27;5763;-65
2022/04/17 17:13:27;;;;;;;;;;;;;;;15.56;30.23;96827.66;4244015;27;6544;-66
2022/04/17 17:15:30;;;;;;;;;;;;;;;15.47;30.02;96828.16;4246326;27;5734;-64
2022/04/17 17:17:32;;;;;;;;;;;;;;;15.41;30.10;96829.91;4243313;27;5746;-65
2022/04/17 17:19:35;;;;;;;;;;;;;;;15.37;30.18;96821.50;4249426;27;5723;-66
2022/04/17 17:21:37;;;;;;;;;;;;;;;15.39;30.66;96821.28;4241305;27;5843;-65
2022/04/17 17:23:39;;;;;;;;;;;;;;;15.37;30.53;96821.50;4233358;27;6449;-65
2022/04/17 17:25:41;;;;;;;;;;;;;;;15.29;30.42;96819.16;4248236;27;5111;-64
2022/04/17 17:27:43;;;;;;;;;;;;;;;15.30;30.38;96833.28;4246903;27;5734;-64
2022/04/17 17:29:45;;;;;;;;;;;;;;;15.25;30.62;96825.94;4244218;27;5727;-65
2022/04/17 17:31:47;;;;;;;;;;;;;;;15.25;30.58;96822.47;4257827;27;5803;-66
2022/04/17 17:33:49;;;;;;;;;;;;;;;15.20;30.81;96830.31;4248117;27;5726;-68
2022/04/17 17:35:52;;;;;;;;;;;;;;;15.14;30.90;96824.84;4240599;27;5740;-66
2022/04/17 17:37:54;;;;;;;;;;;;;;;15.15;31.05;96830.97;4241699;27;5734;-66
2022/04/17 17:39:56;;;;;;;;;;;;;;;15.13;31.29;96827.72;4250028;27;7269;-66
2022/04/17 17:41:57;;;;;;;;;;;;;;;15.15;31.37;96825.66;4247202;27;5726;-65
2022/04/17 17:43:59;;;;;;;;;;;;;;;15.04;31.42;96827.19;4242690;27;5759;-65
2022/04/17 17:46:04;;;;;;;;;;;;;;;14.94;31.06;96826.88;4246723;27;5710;-64
2022/04/17 17:48:07;;;;;;;;;;;;;;;14.93;31.73;96825.25;4232594;27;5783;-65
2022/04/17 17:50:10;;;;;;;;;;;;;;;15.02;31.94;96839.09;4235243;27;5847;-65
2022/04/17 17:52:11;;;;;;;;;;;;;;;15.00;31.40;96826.00;4248743;27;7366;-66
2022/04/17 17:54:13;;;;;;;;;;;;;;;14.96;31.69;96832.81;4239113;27;6448;-65
2022/04/17 17:56:16;;;;;;;;;;;;;;;14.97;31.84;96837.09;4244202;27;5723;-64
2022/04/17 17:58:18;;;;;;;;;;;;;;;14.81;31.43;96835.81;4242616;27;5765;-64
2022/04/17 18:00:20;;;;;;;;;;;;;;;14.80;31.69;96828.84;4246501;27;5644;-63
2022/04/17 18:02:22;;;;;;;;;;;;;;;14.80;31.83;96828.84;4247046;27;5691;-62
2022/04/17 18:04:24;;;;;;;;;;;;;;;14.75;31.64;96834.03;4249983;27;5845;-70
2022/04/17 18:06:26;;;;;;;;;;;;;;;14.71;32.05;96832.00;4245453;27;5697;-68
2022/04/17 18:15:28;;;;;;;;;;;;;;;14.46;32.35;96843.47;4246807;27;5636;-67
2022/04/17 18:17:33;;;;;;;;;;;;;;;14.43;32.71;96838.56;4248059;27;6111;-66
2022/04/17 18:19:39;;;;;;;;;;;;;;;14.42;32.83;96836.94;4235268;27;6962;-69
2022/04/17 18:21:41;;;;;;;;;;;;;;;14.39;32.73;96840.03;4236538;27;7726;-67
2022/04/17 18:23:45;;;;;;;;;;;;;;;14.34;32.93;96837.19;4255644;27;5636;-68
2022/04/17 18:25:49;;;;;;;;;;;;;;;14.34;32.81;96842.50;4239583;27;5910;-70
2022/04/17 18:27:51;;;;;;;;;;;;;;;14.14;33.02;96841.81;4230617;27;5671;-65
2022/04/17 18:29:53;;;;;;;;;;;;;;;14.21;33.24;96847.91;4248741;27;5681;-66
2022/04/17 18:31:55;;;;;;;;;;;;;;;14.23;33.25;96849.31;4250743;27;5842;-65
2022/04/17 18:33:56;;;;;;;;;;;;;;;14.05;33.01;96848.44;4243767;27;5638;-66
2022/04/17 18:35:58;;;;;;;;;;;;;;;14.11;33.62;96839.59;4247506;27;5142;-67
2022/04/17 18:37:59;;;;;;;;;;;;;;;14.09;33.57;96844.31;4248139;27;5855;-68
2022/04/17 18:40:01;;;;;;;;;;;;;;;14.06;33.64;96844.75;4234711;27;5740;-67
2022/04/17 18:42:04;;;;;;;;;;;;;;;14.07;33.49;96846.38;4242231;27;5649;-67
2022/04/17 18:44:05;;;;;;;;;;;;;;;13.84;33.51;96855.69;4239128;27;5661;-65
2022/04/17 18:46:07;;;;;;;;;;;;;;;13.88;33.57;96853.41;4235590;27;5608;-67
2022/04/17 18:48:09;;;;;;;;;;;;;;;13.88;33.42;96851.56;4240602;27;5815;-70
2022/04/17 18:50:15;;;;;;;;;;;;;;;13.82;34.18;96851.63;4238728;27;5726;-62
2022/04/17 18:52:17;;;;;;;;;;;;;;;13.77;33.95;96854.91;4243494;27;5839;-63
2022/04/17 18:54:21;;;;;;;;;;;;;;;13.62;34.00;96849.03;4239556;27;5195;-63
2022/04/17 18:56:23;;;;;;;;;;;;;;;13.65;34.08;96852.09;4249931;27;7781;-64
2022/04/17 18:58:24;;;;;;;;;;;;;;;13.72;33.93;96860.03;4248995;27;5734;-64
2022/04/17 19:00:27;;;;;;;;;;;;;;;13.55;34.13;96858.88;4247039;27;5723;-64
2022/04/17 19:02:28;;;;;;;;;;;;;;;13.64;34.48;96849.66;4239420;27;5732;-66
2022/04/17 19:04:30;;;;;;;;;;;;;;;13.62;34.33;96846.38;4250537;27;5802;-66
2022/04/17 19:06:32;;;;;;;;;;;;;;;13.63;34.34;96856.81;4243855;27;5736;-65
2022/04/17 19:08:34;;;;;;;;;;;;;;;13.57;34.54;96851.50;4250387;27;5867;-65
2022/04/17 19:10:35;;;;;;;;;;;;;;;13.63;34.65;96861.31;4248695;27;5690;-67
2022/04/17 19:14:57;;;;;;;;;;;;;;;13.47;34.73;96851.13;4242556;27;5619;-65
2022/04/17 19:16:59;;;;;;;;;;;;;;;13.45;34.88;96858.50;4247743;27;5746;-64
2022/04/17 19:19:01;;;;;;;;;;;;;;;13.56;34.61;96850.69;4252001;27;5635;-62
2022/04/17 19:21:02;;;;;;;;;;;;;;;13.57;34.52;96848.84;4249210;27;5692;-63
2022/04/17 19:23:05;;;;;;;;;;;;;;;13.59;34.52;96844.13;4246560;27;5679;-65
2022/04/17 19:25:09;;;;;;;;;;;;;;;13.38;34.75;96853.22;4238767;27;5624;-64
2022/04/17 19:27:11;;;;;;;;;;;;;;;13.32;35.13;96852.19;4241641;27;5669;-63
2022/04/17 19:29:12;;;;;;;;;;;;;;;13.43;34.93;96860.56;4239205;27;6372;-63
2022/04/17 19:35:55;;;;;;;;;;;;;;;13.29;35.18;96870.41;4259506;27;5591;-67
2022/04/17 19:37:57;;;;;;;;;;;;;;;13.31;35.21;96858.53;4244783;27;5713;-65
2022/04/17 19:39:58;;;;;;;;;;;;;;;13.40;35.04;96857.28;4242144;27;5620;-67